sensor_id;sensor_type;location;lat;lon;timestamp;pressure;altitude;pressure_sealevel;temperature;humidity
46722;BME280;32455;43.430;23.136;2024-02-15T00:00:20;98713.88;;;5.68;67.53
46722;BME280;32455;43.430;23.136;2024-02-15T00:03:05;98706.69;;;5.68;69.56
46722;BME280;32455;43.430;23.136;2024-02-15T00:05:53;98716.44;;;5.61;69.39
46722;BME280;32455;43.430;23.136;2024-02-15T00:08:39;98718.25;;;5.61;69.28
46722;BME280;32455;43.430;23.136;2024-02-15T00:11:24;98717.13;;;5.55;69.32
46722;BME280;32455;43.430;23.136;2024-02-15T00:14:09;98714.09;;;5.58;70.46
46722;BME280;32455;43.430;23.136;2024-02-15T00:16:55;98720.81;;;5.54;70.93
46722;BME280;32455;43.430;23.136;2024-02-15T00:19:41;98713.50;;;5.48;71.05
46722;BME280;32455;43.430;23.136;2024-02-15T00:22:26;98713.63;;;5.32;71.64
46722;BME280;32455;43.430;23.136;2024-02-15T00:25:11;98714.38;;;4.78;74.87
46722;BME280;32455;43.430;23.136;2024-02-15T00:27:58;98715.63;;;4.98;75.80
46722;BME280;32455;43.430;23.136;2024-02-15T00:30:47;98710.97;;;4.92;76.64
46722;BME280;32455;43.430;23.136;2024-02-15T00:33:32;98706.81;;;4.98;76.36
46722;BME280;32455;43.430;23.136;2024-02-15T00:36:16;98707.13;;;4.95;76.72
46722;BME280;32455;43.430;23.136;2024-02-15T00:39:01;98714.31;;;4.94;76.82
46722;BME280;32455;43.430;23.136;2024-02-15T00:41:49;98713.28;;;4.95;75.85
46722;BME280;32455;43.430;23.136;2024-02-15T00:44:35;98714.50;;;4.93;75.84
46722;BME280;32455;43.430;23.136;2024-02-15T00:47:20;98713.25;;;4.64;77.11
46722;BME280;32455;43.430;23.136;2024-02-15T00:50:06;98715.66;;;4.26;80.11
46722;BME280;32455;43.430;23.136;2024-02-15T00:52:52;98710.13;;;4.52;79.52
46722;BME280;32455;43.430;23.136;2024-02-15T00:55:37;98709.78;;;4.56;80.22
46722;BME280;32455;43.430;23.136;2024-02-15T00:58:23;98711.16;;;4.35;78.77
46722;BME280;32455;43.430;23.136;2024-02-15T01:01:09;98709.47;;;4.50;79.11
46722;BME280;32455;43.430;23.136;2024-02-15T01:03:55;98702.44;;;4.66;75.42
46722;BME280;32455;43.430;23.136;2024-02-15T01:06:40;98700.88;;;4.80;76.35
46722;BME280;32455;43.430;23.136;2024-02-15T01:09:27;98710.72;;;4.71;77.89
46722;BME280;32455;43.430;23.136;2024-02-15T01:12:12;98700.97;;;4.63;77.63
46722;BME280;32455;43.430;23.136;2024-02-15T01:14:57;98703.38;;;4.34;79.71
46722;BME280;32455;43.430;23.136;2024-02-15T01:17:43;98703.84;;;4.45;78.98
46722;BME280;32455;43.430;23.136;2024-02-15T01:20:28;98712.50;;;4.39;70.72
46722;BME280;32455;43.430;23.136;2024-02-15T01:23:13;98702.00;;;4.54;72.93
46722;BME280;32455;43.430;23.136;2024-02-15T01:25:59;98706.63;;;4.60;72.35
46722;BME280;32455;43.430;23.136;2024-02-15T01:28:46;98703.72;;;4.78;70.18
46722;BME280;32455;43.430;23.136;2024-02-15T01:31:31;98700.88;;;4.80;69.18
46722;BME280;32455;43.430;23.136;2024-02-15T01:34:16;98708.66;;;4.50;68.83
46722;BME280;32455;43.430;23.136;2024-02-15T01:37:02;98708.13;;;4.55;69.96
46722;BME280;32455;43.430;23.136;2024-02-15T01:39:47;98708.59;;;4.58;69.44
46722;BME280;32455;43.430;23.136;2024-02-15T01:42:33;98700.81;;;4.48;70.77
46722;BME280;32455;43.430;23.136;2024-02-15T01:45:18;98712.66;;;4.46;69.96
46722;BME280;32455;43.430;23.136;2024-02-15T01:48:04;98704.31;;;4.49;71.36
46722;BME280;32455;43.430;23.136;2024-02-15T01:50:50;98706.53;;;4.37;71.19
46722;BME280;32455;43.430;23.136;2024-02-15T01:53:38;98707.06;;;4.16;72.04
46722;BME280;32455;43.430;23.136;2024-02-15T01:56:24;98714.88;;;4.01;73.13
46722;BME280;32455;43.430;23.136;2024-02-15T01:59:12;98718.34;;;3.94;74.42
46722;BME280;32455;43.430;23.136;2024-02-15T02:02:00;98715.72;;;3.61;76.98
46722;BME280;32455;43.430;23.136;2024-02-15T02:04:45;98717.16;;;3.31;75.90
46722;BME280;32455;43.430;23.136;2024-02-15T02:07:31;98724.25;;;3.14;76.87
46722;BME280;32455;43.430;23.136;2024-02-15T02:10:16;98719.72;;;2.98;78.68
46722;BME280;32455;43.430;23.136;2024-02-15T02:13:03;98710.34;;;2.78;80.40
46722;BME280;32455;43.430;23.136;2024-02-15T02:15:50;98712.75;;;2.55;81.84
46722;BME280;32455;43.430;23.136;2024-02-15T02:18:36;98710.50;;;2.42;82.70
46722;BME280;32455;43.430;23.136;2024-02-15T02:21:22;98709.13;;;2.30;83.65
46722;BME280;32455;43.430;23.136;2024-02-15T02:24:13;98712.22;;;1.99;84.98
46722;BME280;32455;43.430;23.136;2024-02-15T02:26:58;98711.88;;;2.20;84.56
46722;BME280;32455;43.430;23.136;2024-02-15T02:29:45;98714.22;;;1.97;85.67
46722;BME280;32455;43.430;23.136;2024-02-15T02:32:32;98712.81;;;1.67;87.59
46722;BME280;32455;43.430;23.136;2024-02-15T02:35:18;98712.81;;;2.11;86.94
46722;BME280;32455;43.430;23.136;2024-02-15T02:38:05;98713.81;;;2.36;84.67
46722;BME280;32455;43.430;23.136;2024-02-15T02:40:51;98713.47;;;2.13;85.09
46722;BME280;32455;43.430;23.136;2024-02-15T02:43:36;98706.47;;;2.04;86.29
46722;BME280;32455;43.430;23.136;2024-02-15T02:46:22;98714.59;;;2.29;84.28
46722;BME280;32455;43.430;23.136;2024-02-15T02:49:08;98716.50;;;2.44;83.70
46722;BME280;32455;43.430;23.136;2024-02-15T02:51:53;98715.59;;;2.62;81.89
46722;BME280;32455;43.430;23.136;2024-02-15T02:54:38;98719.44;;;2.67;81.16
46722;BME280;32455;43.430;23.136;2024-02-15T02:57:24;98728.91;;;2.78;80.73
46722;BME280;32455;43.430;23.136;2024-02-15T03:00:11;98729.88;;;3.11;75.75
46722;BME280;32455;43.430;23.136;2024-02-15T03:03:00;98727.91;;;3.13;77.03
46722;BME280;32455;43.430;23.136;2024-02-15T03:05:45;98728.75;;;3.22;76.67
46722;BME280;32455;43.430;23.136;2024-02-15T03:08:30;98732.78;;;2.84;77.63
46722;BME280;32455;43.430;23.136;2024-02-15T03:11:16;98728.47;;;2.83;78.63
46722;BME280;32455;43.430;23.136;2024-02-15T03:14:03;98728.19;;;2.34;80.16
46722;BME280;32455;43.430;23.136;2024-02-15T03:16:50;98722.59;;;2.37;81.43
46722;BME280;32455;43.430;23.136;2024-02-15T03:19:36;98726.47;;;2.50;80.04
46722;BME280;32455;43.430;23.136;2024-02-15T03:22:22;98722.78;;;2.43;80.90
46722;BME280;32455;43.430;23.136;2024-02-15T03:25:09;98734.56;;;1.97;82.52
46722;BME280;32455;43.430;23.136;2024-02-15T03:27:56;98727.97;;;2.19;81.60
46722;BME280;32455;43.430;23.136;2024-02-15T03:30:42;98731.97;;;2.23;81.96
46722;BME280;32455;43.430;23.136;2024-02-15T03:33:31;98731.97;;;1.61;84.41
46722;BME280;32455;43.430;23.136;2024-02-15T03:36:19;98735.00;;;1.84;84.78
46722;BME280;32455;43.430;23.136;2024-02-15T03:39:06;98740.69;;;1.71;84.88
46722;BME280;32455;43.430;23.136;2024-02-15T03:41:53;98739.22;;;1.77;84.87
46722;BME280;32455;43.430;23.136;2024-02-15T03:44:38;98741.44;;;1.46;86.03
46722;BME280;32455;43.430;23.136;2024-02-15T03:47:24;98738.09;;;1.62;86.05
46722;BME280;32455;43.430;23.136;2024-02-15T03:50:09;98742.56;;;1.61;85.31
46722;BME280;32455;43.430;23.136;2024-02-15T03:52:55;98738.75;;;1.82;84.92
46722;BME280;32455;43.430;23.136;2024-02-15T03:55:40;98743.44;;;1.88;84.18
46722;BME280;32455;43.430;23.136;2024-02-15T03:58:26;98747.44;;;1.92;83.28
46722;BME280;32455;43.430;23.136;2024-02-15T04:01:11;98748.97;;;1.94;83.58
46722;BME280;32455;43.430;23.136;2024-02-15T04:03:58;98743.31;;;1.89;83.61
46722;BME280;32455;43.430;23.136;2024-02-15T04:06:43;98752.28;;;1.96;83.98
46722;BME280;32455;43.430;23.136;2024-02-15T04:09:29;98747.97;;;1.95;84.31
46722;BME280;32455;43.430;23.136;2024-02-15T04:12:14;98745.59;;;1.84;83.88
46722;BME280;32455;43.430;23.136;2024-02-15T04:14:59;98744.44;;;1.87;83.39
46722;BME280;32455;43.430;23.136;2024-02-15T04:17:56;98746.72;;;2.25;80.06
46722;BME280;32455;43.430;23.136;2024-02-15T04:20:43;98750.25;;;2.34;80.32
46722;BME280;32455;43.430;23.136;2024-02-15T04:23:29;98741.75;;;2.31;80.69
46722;BME280;32455;43.430;23.136;2024-02-15T04:26:15;98760.13;;;2.24;80.51
46722;BME280;32455;43.430;23.136;2024-02-15T04:29:00;98749.97;;;1.93;82.27
46722;BME280;32455;43.430;23.136;2024-02-15T04:31:46;98749.63;;;2.14;81.12
46722;BME280;32455;43.430;23.136;2024-02-15T04:34:34;98752.41;;;2.13;82.15
46722;BME280;32455;43.430;23.136;2024-02-15T04:37:20;98748.22;;;2.02;81.03
46722;BME280;32455;43.430;23.136;2024-02-15T04:40:06;98759.44;;;2.22;80.54
46722;BME280;32455;43.430;23.136;2024-02-15T04:42:54;98759.59;;;2.20;81.51
46722;BME280;32455;43.430;23.136;2024-02-15T04:45:39;98762.63;;;2.51;79.33
46722;BME280;32455;43.430;23.136;2024-02-15T04:48:25;98762.56;;;2.17;79.39
46722;BME280;32455;43.430;23.136;2024-02-15T04:51:10;98769.69;;;2.69;77.13
46722;BME280;32455;43.430;23.136;2024-02-15T04:53:56;98763.38;;;2.44;78.19
46722;BME280;32455;43.430;23.136;2024-02-15T04:56:43;98765.16;;;2.35;79.32
46722;BME280;32455;43.430;23.136;2024-02-15T04:59:28;98775.53;;;2.03;81.08
46722;BME280;32455;43.430;23.136;2024-02-15T05:02:14;98770.84;;;1.96;81.82
46722;BME280;32455;43.430;23.136;2024-02-15T05:04:59;98769.72;;;1.81;82.02
46722;BME280;32455;43.430;23.136;2024-02-15T05:07:45;98770.84;;;2.14;80.92
46722;BME280;32455;43.430;23.136;2024-02-15T05:10:32;98782.41;;;2.13;79.99
46722;BME280;32455;43.430;23.136;2024-02-15T05:13:17;98780.00;;;2.46;78.26
46722;BME280;32455;43.430;23.136;2024-02-15T05:16:03;98789.41;;;2.40;77.93
46722;BME280;32455;43.430;23.136;2024-02-15T05:18:50;98792.31;;;2.55;78.07
46722;BME280;32455;43.430;23.136;2024-02-15T05:21:36;98799.84;;;2.68;76.57
46722;BME280;32455;43.430;23.136;2024-02-15T05:24:22;98801.84;;;2.66;76.68
46722;BME280;32455;43.430;23.136;2024-02-15T05:27:08;98807.34;;;2.72;75.18
46722;BME280;32455;43.430;23.136;2024-02-15T05:29:53;98814.31;;;2.73;76.13
46722;BME280;32455;43.430;23.136;2024-02-15T05:32:38;98815.41;;;2.89;74.99
46722;BME280;32455;43.430;23.136;2024-02-15T05:35:28;98818.88;;;2.89;74.53
46722;BME280;32455;43.430;23.136;2024-02-15T05:38:14;98810.31;;;2.69;75.01
46722;BME280;32455;43.430;23.136;2024-02-15T05:41:02;98806.72;;;2.79;75.46
46722;BME280;32455;43.430;23.136;2024-02-15T05:43:48;98805.81;;;2.96;75.38
46722;BME280;32455;43.430;23.136;2024-02-15T05:46:33;98804.22;;;3.11;73.79
46722;BME280;32455;43.430;23.136;2024-02-15T05:49:22;98821.50;;;3.15;73.83
46722;BME280;32455;43.430;23.136;2024-02-15T05:52:10;98830.28;;;3.16;72.12
46722;BME280;32455;43.430;23.136;2024-02-15T05:54:54;98827.31;;;3.19;72.98
46722;BME280;32455;43.430;23.136;2024-02-15T05:57:39;98831.69;;;3.28;73.54
46722;BME280;32455;43.430;23.136;2024-02-15T06:00:24;98829.06;;;3.36;72.90
46722;BME280;32455;43.430;23.136;2024-02-15T06:03:10;98841.59;;;3.60;70.05
46722;BME280;32455;43.430;23.136;2024-02-15T06:05:59;98834.94;;;3.56;71.54
46722;BME280;32455;43.430;23.136;2024-02-15T06:08:46;98842.41;;;3.53;71.91
46722;BME280;32455;43.430;23.136;2024-02-15T06:11:33;98839.75;;;3.53;72.28
46722;BME280;32455;43.430;23.136;2024-02-15T06:14:18;98841.03;;;3.40;72.20
46722;BME280;32455;43.430;23.136;2024-02-15T06:17:05;98842.53;;;3.51;71.90
46722;BME280;32455;43.430;23.136;2024-02-15T06:19:50;98849.03;;;3.48;72.50
46722;BME280;32455;43.430;23.136;2024-02-15T06:22:37;98849.91;;;3.65;70.70
46722;BME280;32455;43.430;23.136;2024-02-15T06:25:22;98854.78;;;3.86;69.51
46722;BME280;32455;43.430;23.136;2024-02-15T06:28:08;98860.31;;;4.09;68.74
46722;BME280;32455;43.430;23.136;2024-02-15T06:31:13;98859.00;;;4.30;67.89
46722;BME280;32455;43.430;23.136;2024-02-15T06:34:17;98855.34;;;4.31;68.43
46722;BME280;32455;43.430;23.136;2024-02-15T06:37:51;98862.00;;;4.59;64.91
46722;BME280;32455;43.430;23.136;2024-02-15T06:40:54;98870.94;;;4.74;65.16
46722;BME280;32455;43.430;23.136;2024-02-15T06:43:39;98865.09;;;4.87;66.15
46722;BME280;32455;43.430;23.136;2024-02-15T06:46:26;98864.88;;;5.13;64.23
46722;BME280;32455;43.430;23.136;2024-02-15T06:49:11;98872.66;;;5.31;64.84
46722;BME280;32455;43.430;23.136;2024-02-15T06:51:56;98875.19;;;5.16;64.03
46722;BME280;32455;43.430;23.136;2024-02-15T06:54:43;98869.19;;;5.22;64.00
46722;BME280;32455;43.430;23.136;2024-02-15T06:57:30;98864.47;;;5.41;63.64
46722;BME280;32455;43.430;23.136;2024-02-15T07:00:15;98863.34;;;5.66;63.28
46722;BME280;32455;43.430;23.136;2024-02-15T07:03:02;98860.72;;;5.89;62.52
46722;BME280;32455;43.430;23.136;2024-02-15T07:05:49;98870.22;;;6.00;61.23
46722;BME280;32455;43.430;23.136;2024-02-15T07:08:34;98867.41;;;5.93;59.73
46722;BME280;32455;43.430;23.136;2024-02-15T07:11:21;98866.38;;;5.94;60.34
46722;BME280;32455;43.430;23.136;2024-02-15T07:14:06;98874.47;;;6.09;59.47
46722;BME280;32455;43.430;23.136;2024-02-15T07:16:54;98880.59;;;6.41;59.24
46722;BME280;32455;43.430;23.136;2024-02-15T07:19:44;98874.78;;;6.37;58.07
46722;BME280;32455;43.430;23.136;2024-02-15T07:22:32;98866.59;;;6.16;58.30
46722;BME280;32455;43.430;23.136;2024-02-15T07:25:17;98879.28;;;6.37;57.84
46722;BME280;32455;43.430;23.136;2024-02-15T07:28:03;98867.72;;;6.44;58.57
46722;BME280;32455;43.430;23.136;2024-02-15T07:30:52;98857.41;;;6.79;58.04
46722;BME280;32455;43.430;23.136;2024-02-15T07:33:39;98862.97;;;6.32;57.96
46722;BME280;32455;43.430;23.136;2024-02-15T07:36:28;98867.13;;;6.72;57.72
46722;BME280;32455;43.430;23.136;2024-02-15T07:39:13;98864.50;;;6.87;56.75
46722;BME280;32455;43.430;23.136;2024-02-15T07:42:08;98859.94;;;6.58;56.44
46722;BME280;32455;43.430;23.136;2024-02-15T07:44:53;98860.97;;;6.71;57.61
46722;BME280;32455;43.430;23.136;2024-02-15T07:47:38;98854.09;;;6.92;57.61
46722;BME280;32455;43.430;23.136;2024-02-15T07:50:23;98861.34;;;6.68;55.62
46722;BME280;32455;43.430;23.136;2024-02-15T07:53:08;98857.25;;;6.95;56.53
46722;BME280;32455;43.430;23.136;2024-02-15T07:55:55;98854.75;;;7.23;57.04
46722;BME280;32455;43.430;23.136;2024-02-15T07:58:42;98849.88;;;7.27;55.86
46722;BME280;32455;43.430;23.136;2024-02-15T08:01:31;98855.41;;;6.96;55.22
46722;BME280;32455;43.430;23.136;2024-02-15T08:04:17;98854.03;;;7.00;54.91
46722;BME280;32455;43.430;23.136;2024-02-15T08:07:03;98850.06;;;7.11;56.55
46722;BME280;32455;43.430;23.136;2024-02-15T08:09:47;98850.72;;;7.13;54.96
46722;BME280;32455;43.430;23.136;2024-02-15T08:12:35;98852.28;;;7.37;54.85
46722;BME280;32455;43.430;23.136;2024-02-15T08:15:20;98850.28;;;7.24;55.01
46722;BME280;32455;43.430;23.136;2024-02-15T08:18:06;98849.22;;;7.10;55.52
46722;BME280;32455;43.430;23.136;2024-02-15T08:20:54;98849.78;;;7.35;54.89
46722;BME280;32455;43.430;23.136;2024-02-15T08:23:41;98851.91;;;7.25;56.21
46722;BME280;32455;43.430;23.136;2024-02-15T08:26:27;98851.66;;;7.20;54.53
46722;BME280;32455;43.430;23.136;2024-02-15T08:29:14;98855.50;;;7.47;56.13
46722;BME280;32455;43.430;23.136;2024-02-15T08:31:59;98850.13;;;7.62;54.21
46722;BME280;32455;43.430;23.136;2024-02-15T08:34:45;98845.06;;;7.67;54.56
46722;BME280;32455;43.430;23.136;2024-02-15T08:37:32;98851.19;;;7.82;53.87
46722;BME280;32455;43.430;23.136;2024-02-15T08:40:21;98853.97;;;7.74;53.84
46722;BME280;32455;43.430;23.136;2024-02-15T08:43:09;98849.81;;;7.86;53.55
46722;BME280;32455;43.430;23.136;2024-02-15T08:45:54;98852.22;;;7.66;52.78
46722;BME280;32455;43.430;23.136;2024-02-15T08:48:40;98856.75;;;7.81;53.84
46722;BME280;32455;43.430;23.136;2024-02-15T08:51:25;98856.19;;;7.70;52.37
46722;BME280;32455;43.430;23.136;2024-02-15T08:54:11;98857.31;;;7.61;51.49
46722;BME280;32455;43.430;23.136;2024-02-15T08:56:56;98860.59;;;7.93;53.13
46722;BME280;32455;43.430;23.136;2024-02-15T08:59:42;98860.66;;;7.48;52.70
46722;BME280;32455;43.430;23.136;2024-02-15T09:02:28;98846.00;;;7.59;53.51
46722;BME280;32455;43.430;23.136;2024-02-15T09:05:13;98856.56;;;7.82;53.38
46722;BME280;32455;43.430;23.136;2024-02-15T09:07:59;98852.84;;;7.83;53.65
46722;BME280;32455;43.430;23.136;2024-02-15T09:10:44;98858.03;;;7.85;52.29
46722;BME280;32455;43.430;23.136;2024-02-15T09:13:29;98858.09;;;7.91;51.39
46722;BME280;32455;43.430;23.136;2024-02-15T09:16:15;98857.28;;;8.12;53.19
46722;BME280;32455;43.430;23.136;2024-02-15T09:19:00;98849.47;;;8.11;51.52
46722;BME280;32455;43.430;23.136;2024-02-15T09:21:47;98858.66;;;8.23;52.07
46722;BME280;32455;43.430;23.136;2024-02-15T09:24:33;98853.06;;;8.39;51.72
46722;BME280;32455;43.430;23.136;2024-02-15T09:27:18;98865.91;;;8.29;50.83
46722;BME280;32455;43.430;23.136;2024-02-15T09:30:11;98851.63;;;8.22;51.15
46722;BME280;32455;43.430;23.136;2024-02-15T09:32:57;98856.81;;;8.23;50.49
46722;BME280;32455;43.430;23.136;2024-02-15T09:35:42;98860.75;;;8.27;50.36
46722;BME280;32455;43.430;23.136;2024-02-15T09:38:27;98849.16;;;8.42;51.73
46722;BME280;32455;43.430;23.136;2024-02-15T09:41:13;98844.09;;;8.75;50.54
46722;BME280;32455;43.430;23.136;2024-02-15T09:43:59;98833.94;;;8.42;50.84
46722;BME280;32455;43.430;23.136;2024-02-15T09:46:44;98845.34;;;8.51;52.01
46722;BME280;32455;43.430;23.136;2024-02-15T09:49:36;98842.47;;;8.31;49.32
46722;BME280;32455;43.430;23.136;2024-02-15T09:52:23;98842.66;;;8.51;50.40
46722;BME280;32455;43.430;23.136;2024-02-15T09:55:08;98834.00;;;8.49;51.09
46722;BME280;32455;43.430;23.136;2024-02-15T09:57:57;98846.38;;;8.50;50.77
46722;BME280;32455;43.430;23.136;2024-02-15T10:00:43;98835.44;;;8.51;50.42
46722;BME280;32455;43.430;23.136;2024-02-15T10:03:30;98833.25;;;8.83;49.13
46722;BME280;32455;43.430;23.136;2024-02-15T10:06:17;98833.63;;;8.80;50.16
46722;BME280;32455;43.430;23.136;2024-02-15T10:09:24;98822.00;;;8.45;49.05
46722;BME280;32455;43.430;23.136;2024-02-15T10:12:13;98825.53;;;8.73;50.89
46722;BME280;32455;43.430;23.136;2024-02-15T10:14:59;98813.59;;;9.04;51.02
46722;BME280;32455;43.430;23.136;2024-02-15T10:17:54;98811.91;;;9.03;50.35
46722;BME280;32455;43.430;23.136;2024-02-15T10:20:40;98814.34;;;8.91;50.79
46722;BME280;32455;43.430;23.136;2024-02-15T10:23:28;98808.47;;;9.09;50.22
46722;BME280;32455;43.430;23.136;2024-02-15T10:26:20;98807.16;;;8.98;50.33
46722;BME280;32455;43.430;23.136;2024-02-15T10:29:11;98810.34;;;8.81;50.26
46722;BME280;32455;43.430;23.136;2024-02-15T10:31:57;98799.38;;;9.10;50.81
46722;BME280;32455;43.430;23.136;2024-02-15T10:34:45;98802.63;;;9.40;49.89
46722;BME280;32455;43.430;23.136;2024-02-15T10:37:32;98799.22;;;9.18;49.98
46722;BME280;32455;43.430;23.136;2024-02-15T10:40:23;98790.56;;;9.64;50.71
46722;BME280;32455;43.430;23.136;2024-02-15T10:43:09;98786.41;;;9.55;49.12
46722;BME280;32455;43.430;23.136;2024-02-15T10:45:59;98782.50;;;9.71;49.76
46722;BME280;32455;43.430;23.136;2024-02-15T10:48:46;98794.53;;;9.82;48.31
46722;BME280;32455;43.430;23.136;2024-02-15T10:51:33;98791.47;;;9.37;48.28
46722;BME280;32455;43.430;23.136;2024-02-15T10:57:21;98784.13;;;9.59;47.15
46722;BME280;32455;43.430;23.136;2024-02-15T11:00:07;98787.19;;;9.42;48.39
46722;BME280;32455;43.430;23.136;2024-02-15T11:03:02;98786.84;;;9.65;48.11
46722;BME280;32455;43.430;23.136;2024-02-15T11:05:50;98781.69;;;9.70;49.05
46722;BME280;32455;43.430;23.136;2024-02-15T11:08:36;98783.75;;;9.68;47.20
46722;BME280;32455;43.430;23.136;2024-02-15T11:11:23;98776.25;;;9.50;47.49
46722;BME280;32455;43.430;23.136;2024-02-15T11:14:30;98775.94;;;9.73;48.61
46722;BME280;32455;43.430;23.136;2024-02-15T11:23:27;98759.13;;;9.45;47.05
46722;BME280;32455;43.430;23.136;2024-02-15T11:26:44;98758.19;;;9.72;47.97
46722;BME280;32455;43.430;23.136;2024-02-15T11:35:21;98757.28;;;9.59;46.64
46722;BME280;32455;43.430;23.136;2024-02-15T11:38:08;98755.13;;;9.95;46.96
46722;BME280;32455;43.430;23.136;2024-02-15T11:41:09;98754.72;;;10.05;46.27
46722;BME280;32455;43.430;23.136;2024-02-15T11:43:58;98757.84;;;10.22;46.56
46722;BME280;32455;43.430;23.136;2024-02-15T11:46:44;98749.53;;;9.84;45.61
46722;BME280;32455;43.430;23.136;2024-02-15T11:49:29;98753.91;;;10.11;46.62
46722;BME280;32455;43.430;23.136;2024-02-15T11:52:15;98761.13;;;10.17;46.60
46722;BME280;32455;43.430;23.136;2024-02-15T11:55:08;98762.09;;;9.70;45.89
46722;BME280;32455;43.430;23.136;2024-02-15T11:57:56;98747.47;;;9.86;45.92
46722;BME280;32455;43.430;23.136;2024-02-15T12:00:49;98747.50;;;10.19;46.50
46722;BME280;32455;43.430;23.136;2024-02-15T12:03:54;98747.03;;;9.89;45.42
46722;BME280;32455;43.430;23.136;2024-02-15T12:06:58;98751.22;;;10.18;46.09
46722;BME280;32455;43.430;23.136;2024-02-15T12:10:03;98747.28;;;10.14;45.37
46722;BME280;32455;43.430;23.136;2024-02-15T12:13:07;98749.53;;;9.97;45.30
46722;BME280;32455;43.430;23.136;2024-02-15T12:16:15;98752.66;;;10.14;46.69
46722;BME280;32455;43.430;23.136;2024-02-15T12:19:18;98748.78;;;10.30;45.61
46722;BME280;32455;43.430;23.136;2024-02-15T12:22:03;98743.38;;;10.23;44.68
46722;BME280;32455;43.430;23.136;2024-02-15T12:24:56;98739.41;;;9.86;45.26
46722;BME280;32455;43.430;23.136;2024-02-15T12:27:42;98742.13;;;10.06;45.75
46722;BME280;32455;43.430;23.136;2024-02-15T12:30:34;98738.63;;;10.32;45.09
46722;BME280;32455;43.430;23.136;2024-02-15T12:33:24;98736.97;;;10.64;45.65
46722;BME280;32455;43.430;23.136;2024-02-15T12:36:12;98736.19;;;10.30;44.54
46722;BME280;32455;43.430;23.136;2024-02-15T12:39:04;98723.94;;;10.14;44.04
46722;BME280;32455;43.430;23.136;2024-02-15T12:41:56;98713.00;;;10.16;44.10
46722;BME280;32455;43.430;23.136;2024-02-15T12:44:44;98713.63;;;10.51;46.01
46722;BME280;32455;43.430;23.136;2024-02-15T12:47:34;98708.69;;;10.55;44.70
46722;BME280;32455;43.430;23.136;2024-02-15T12:50:27;98708.22;;;10.58;44.68
46722;BME280;32455;43.430;23.136;2024-02-15T12:53:12;98713.00;;;10.36;44.84
46722;BME280;32455;43.430;23.136;2024-02-15T12:55:57;98718.16;;;10.17;44.30
46722;BME280;32455;43.430;23.136;2024-02-15T12:58:43;98711.78;;;10.32;44.03
46722;BME280;32455;43.430;23.136;2024-02-15T13:01:30;98713.25;;;10.34;43.92
46722;BME280;32455;43.430;23.136;2024-02-15T13:04:24;98698.56;;;10.37;44.42
46722;BME280;32455;43.430;23.136;2024-02-15T13:07:09;98709.31;;;10.30;44.07
46722;BME280;32455;43.430;23.136;2024-02-15T13:09:54;98701.66;;;10.34;44.76
46722;BME280;32455;43.430;23.136;2024-02-15T13:12:43;98699.59;;;10.42;43.74
46722;BME280;32455;43.430;23.136;2024-02-15T13:15:29;98697.09;;;10.21;43.75
46722;BME280;32455;43.430;23.136;2024-02-15T13:18:18;98704.34;;;10.40;43.77
46722;BME280;32455;43.430;23.136;2024-02-15T13:21:03;98704.97;;;10.29;42.67
46722;BME280;32455;43.430;23.136;2024-02-15T13:23:51;98707.88;;;10.34;45.74
46722;BME280;32455;43.430;23.136;2024-02-15T13:26:36;98700.00;;;10.26;43.47
46722;BME280;32455;43.430;23.136;2024-02-15T13:29:22;98695.25;;;10.41;43.32
46722;BME280;32455;43.430;23.136;2024-02-15T13:32:08;98697.53;;;10.31;44.22
46722;BME280;32455;43.430;23.136;2024-02-15T13:34:57;98695.47;;;10.33;44.55
46722;BME280;32455;43.430;23.136;2024-02-15T13:37:47;98691.72;;;10.47;45.17
46722;BME280;32455;43.430;23.136;2024-02-15T13:40:32;98686.34;;;10.54;45.16
46722;BME280;32455;43.430;23.136;2024-02-15T13:43:18;98695.69;;;10.45;44.39
46722;BME280;32455;43.430;23.136;2024-02-15T13:46:04;98692.75;;;10.40;44.55
46722;BME280;32455;43.430;23.136;2024-02-15T13:48:48;98690.91;;;10.27;45.02
46722;BME280;32455;43.430;23.136;2024-02-15T13:51:33;98684.31;;;10.30;44.09
46722;BME280;32455;43.430;23.136;2024-02-15T13:54:19;98686.13;;;10.22;44.59
46722;BME280;32455;43.430;23.136;2024-02-15T13:57:06;98686.81;;;10.24;44.90
46722;BME280;32455;43.430;23.136;2024-02-15T13:59:52;98671.28;;;10.26;44.75
46722;BME280;32455;43.430;23.136;2024-02-15T14:02:37;98687.63;;;10.25;44.47
46722;BME280;32455;43.430;23.136;2024-02-15T14:05:27;98684.47;;;10.15;44.43
46722;BME280;32455;43.430;23.136;2024-02-15T14:08:13;98688.81;;;10.22;44.41
46722;BME280;32455;43.430;23.136;2024-02-15T14:11:00;98683.91;;;10.33;45.49
46722;BME280;32455;43.430;23.136;2024-02-15T14:13:45;98688.00;;;10.22;44.59
46722;BME280;32455;43.430;23.136;2024-02-15T14:16:31;98689.66;;;10.10;44.86
46722;BME280;32455;43.430;23.136;2024-02-15T14:19:18;98690.09;;;10.20;44.70
46722;BME280;32455;43.430;23.136;2024-02-15T14:22:03;98692.34;;;10.10;44.58
46722;BME280;32455;43.430;23.136;2024-02-15T14:24:54;98691.09;;;10.19;44.83
46722;BME280;32455;43.430;23.136;2024-02-15T14:27:42;98697.09;;;10.21;45.61
46722;BME280;32455;43.430;23.136;2024-02-15T14:30:32;98699.56;;;10.09;44.99
46722;BME280;32455;43.430;23.136;2024-02-15T14:33:52;98686.97;;;9.90;45.15
46722;BME280;32455;43.430;23.136;2024-02-15T14:36:38;98693.16;;;9.97;45.29
46722;BME280;32455;43.430;23.136;2024-02-15T14:39:23;98694.22;;;10.02;45.09
46722;BME280;32455;43.430;23.136;2024-02-15T14:42:09;98681.19;;;9.93;45.71
46722;BME280;32455;43.430;23.136;2024-02-15T14:44:56;98677.69;;;9.86;46.03
46722;BME280;32455;43.430;23.136;2024-02-15T14:47:42;98689.44;;;10.04;46.05
46722;BME280;32455;43.430;23.136;2024-02-15T14:50:27;98676.63;;;9.73;46.93
46722;BME280;32455;43.430;23.136;2024-02-15T14:53:14;98684.69;;;9.73;46.12
46722;BME280;32455;43.430;23.136;2024-02-15T14:56:00;98684.69;;;9.73;46.02
46722;BME280;32455;43.430;23.136;2024-02-15T14:58:47;98681.59;;;9.83;46.02